createdAt,value
2022-09-30T06:14:58.286Z,179.64
2022-09-30T06:24:58.706Z,179.21
2022-09-30T06:34:58.431Z,180.00
2022-09-30T06:44:58.419Z,179.53
2022-09-30T06:54:58.434Z,179.67
2022-09-30T07:04:58.618Z,180.00
2022-09-30T07:14:58.418Z,178.80
2022-09-30T07:24:58.360Z,180.00
2022-09-30T07:34:58.472Z,179.78
2022-09-30T07:44:58.554Z,180.00
2022-09-30T07:54:58.517Z,179.59
2022-09-30T08:04:58.473Z,178.61
2022-09-30T08:14:58.426Z,178.92
2022-09-30T08:24:58.673Z,175.45
2022-09-30T08:34:58.543Z,178.82
2022-09-30T08:44:58.858Z,177.98
2022-09-30T08:54:58.935Z,179.88
2022-09-30T09:04:58.842Z,179.65
2022-09-30T09:14:58.906Z,177.79
2022-09-30T09:24:58.995Z,178.66
2022-09-30T09:34:58.847Z,179.13
2022-09-30T09:44:59.065Z,177.82
2022-09-30T09:54:58.873Z,178.46
2022-09-30T10:04:58.901Z,179.13
2022-09-30T10:14:58.899Z,180.64
2022-09-30T10:24:58.837Z,178.98
2022-09-30T10:34:58.878Z,181.95
2022-09-30T10:44:58.930Z,179.10
2022-09-30T10:54:58.844Z,179.84
2022-09-30T11:04:59.069Z,178.83
2022-09-30T11:14:58.966Z,179.97
2022-09-30T11:24:59.008Z,179.14
2022-09-30T11:34:59.072Z,179.86
2022-09-30T11:44:58.982Z,178.61
2022-09-30T11:54:59.016Z,177.77
2022-09-30T12:04:58.970Z,179.67
2022-09-30T12:14:59.136Z,183.42
2022-09-30T12:24:59.014Z,179.87
2022-09-30T12:34:59.023Z,180.00
2022-09-30T12:44:59.199Z,178.72
2022-09-30T12:54:59.129Z,178.64
2022-09-30T13:04:59.203Z,178.63
2022-09-30T13:14:59.255Z,179.12
2022-09-30T13:24:59.278Z,181.30
2022-09-30T13:34:59.147Z,180.53
2022-09-30T13:44:59.128Z,178.21
2022-09-30T13:54:59.298Z,176.68
2022-09-30T14:04:59.192Z,177.87
2022-09-30T14:14:59.284Z,179.74
2022-09-30T14:24:59.190Z,178.83
2022-09-30T14:34:59.414Z,180.26
2022-09-30T14:44:59.197Z,179.77
2022-09-30T14:54:59.408Z,179.08
2022-09-30T15:05:01.599Z,178.57
2022-09-30T15:14:59.295Z,179.22
2022-09-30T15:24:59.320Z,179.51
2022-09-30T15:34:59.162Z,177.94
2022-09-30T15:44:59.295Z,179.46
2022-09-30T15:54:59.328Z,178.53
2022-09-30T16:04:59.349Z,178.63
2022-09-30T16:14:59.434Z,177.72
2022-09-30T16:24:59.250Z,176.67
2022-09-30T16:34:59.346Z,179.67
2022-09-30T16:44:59.364Z,177.56
2022-09-30T16:54:59.223Z,179.06
2022-09-30T17:04:59.422Z,173.43
2022-09-30T17:14:59.342Z,157.08
2022-09-30T17:24:59.510Z,162.99
2022-09-30T17:34:59.397Z,155.98
2022-09-30T17:44:59.415Z,157.15
2022-09-30T17:54:59.535Z,146.45
2022-09-30T18:04:59.340Z,157.86
2022-09-30T18:14:59.464Z,149.96
2022-09-30T18:24:59.384Z,143.72
2022-09-30T18:34:59.344Z,141.97
2022-09-30T18:44:59.540Z,135.58
2022-09-30T18:54:59.486Z,139.04
2022-09-30T19:05:00.088Z,139.88
2022-09-30T19:14:59.657Z,136.13
